Private Wetterstation Sandau
Wetterdaten: Oktober 2012
Datum Temp. A. Feuchte A. Luftdruck Regen Wind Richtung Taupunkt Windchill
01.10.2012 10,7 C 73 % 1016,8 hPa 0,0 l/m 1,5 km/h (1 Bft) S-SO 5,7 C 10,7 C
02.10.2012 12,8 C 75 % 1015,8 hPa 0,0 l/m 4,2 km/h (1 Bft) S-SO 8,2 C 12,6 C
03.10.2012 14,5 C 71 % 1011,4 hPa 0,0 l/m 5,3 km/h (1 Bft) S-SW 9,1 C 14,5 C
04.10.2012 11,4 C 87 % 1007,8 hPa 20,7 l/m 19,5 km/h (3 Bft) S-SW 9,3 C 9,6 C
05.10.2012 11,4 C 83 % 1008,4 hPa 3,1 l/m 11,6 km/h (2 Bft) W-SW 8,6 C 11,2 C
06.10.2012 9,5 C 90 % 1010,1 hPa 17,1 l/m 5,8 km/h (2 Bft) W-SW 7,9 C 9,0 C
07.10.2012 9,6 C 82 % 1016,4 hPa 0,5 l/m 5,8 km/h (2 Bft) W-SW 6,5 C 9,6 C
08.10.2012 8,9 C 81 % 1016,8 hPa 0,0 l/m 5,2 km/h (1 Bft) W-SW 5,7 C 8,9 C
09.10.2012 8,4 C 77 % 1011,5 hPa 0,0 l/m 11,6 km/h (2 Bft) W 4,3 C 7,1 C
10.10.2012 8,2 C 84 % 1014,0 hPa 1,6 l/m 3,7 km/h (1 Bft) W 5,6 C 8,2 C
11.10.2012 7,9 C 85 % 1014,9 hPa 1,0 l/m 0,8 km/h (0 Bft) W 5,4 C 7,9 C
12.10.2012 8,4 C 87 % 1009,2 hPa 5,2 l/m 6,4 km/h (2 Bft) SO 6,3 C 7,8 C
13.10.2012 9,5 C 79 % 1009,8 hPa 0,0 l/m 6,5 km/h (2 Bft) W-SW 5,8 C 9,2 C
14.10.2012 9,2 C 78 % 1002,1 hPa 2,1 l/m 4,5 km/h (1 Bft) SO 5,4 C 9,2 C
15.10.2012 8,1 C 87 % 1005,2 hPa 3,6 l/m 9,4 km/h (2 Bft) W-SW 6,1 C 6,7 C
16.10.2012 9,2 C 80 % 1010,0 hPa 0,0 l/m 6,8 km/h (2 Bft) S-SW 5,8 C 9,2 C
17.10.2012 10,8 C 79 % 1012,3 hPa 0,0 l/m 5,5 km/h (1 Bft) S 7,2 C 10,8 C
18.10.2012 14,6 C 72 % 1013,6 hPa 0,0 l/m 3,1 km/h (1 Bft) S-SO 9,3 C 14,6 C
19.10.2012 14,0 C 80 % 1015,0 hPa 0,0 l/m 2,2 km/h (1 Bft) SO 10,3 C 14,0 C
20.10.2012 14,2 C 82 % 1018,3 hPa 0,0 l/m 1,3 km/h (1 Bft) SO 10,9 C 14,2 C
21.10.2012 14,8 C 88 % 1020,9 hPa 0,0 l/m 3,8 km/h (1 Bft) O-SO 12,7 C 14,8 C
22.10.2012 12,9 C 91 % 1025,9 hPa 0,0 l/m 4,1 km/h (1 Bft) O-SO 11,4 C 12,9 C
23.10.2012 11,7 C 90 % 1026,9 hPa 0,0 l/m 1,6 km/h (1 Bft) O-SO 10,2 C 11,7 C
24.10.2012 11,5 C 91 % 1020,6 hPa 0,0 l/m 1,6 km/h (1 Bft) W-NW 10,0 C 11,5 C
25.10.2012 8,8 C 83 % 1011,5 hPa 0,0 l/m 5,7 km/h (1 Bft) W-NW 5,9 C 8,3 C
26.10.2012 3,2 C 68 % 1011,3 hPa 0,0 l/m 1,5 km/h (1 Bft) SO -2,5 C 3,2 C
27.10.2012 2,5 C 77 % 1007,2 hPa 75,1 l/m 4,2 km/h (1 Bft) NO -1,3 C 2,0 C
28.10.2012 1,0 C 79 % 1016,3 hPa 0,0 l/m 2,0 km/h (1 Bft) NW -2,4 C 1,0 C
29.10.2012 3,1 C 73 % 1011,5 hPa 0,5 l/m 8,4 km/h (2 Bft) S-SO -1,5 C 0,8 C
30.10.2012 4,3 C 89 % 1003,2 hPa 8,3 l/m 3,9 km/h (1 Bft) S-SW 2,6 C 3,8 C
31.10.2012 4,9 C 88 % 1002,4 hPa 0,5 l/m 4,2 km/h (1 Bft) S-SO 3,1 C 4,2 C
Min-Datum 29.10.12 26.10.12 15.10.12 13 Tage 01.10.12 - 29.10.12 29.10.12
Min-Zeit 03:06 16:11 06:31 - 00:01 - 03:06 04:56
Minimum -2,8 C 44 % 997,6 hPa - 0,0 km/h (0 Bft) - -4,7 C -6,4 C
Max-Datum 20.10.12 21.10.12 23.10.12 27.10.12 05.10.12 - 21.10.12 20.10.12
Max-Zeit 15:51 06:26 11:21 19:21 15:26 - 14:56 15:51
Maximum 22,4 C 94 % 1028,6 hPa 75,1 l/m 39,2 km/h
W-SW (6 Bft)
- 15,5 C 22,4 C
Durchschnitt 9,3 C 81 % 1012,8 hPa #139,4 l/m 5,2 km/h (1 Bft) W-SW 6,2 C 9,0 C

Durchschnitt Minimum Temp.5,7 C
Durchschnitt Maximum Temp.14,0 C
(c) by David Heller